sensor_id;sensor_type;location;lat;lon;timestamp;temperature;humidity
47520;DHT22;33252;48.122;11.538;2022-09-14T00:01:11;18.80;99.90
47520;DHT22;33252;48.122;11.538;2022-09-14T00:03:37;18.80;99.90
47520;DHT22;33252;48.122;11.538;2022-09-14T00:06:11;18.70;99.90
47520;DHT22;33252;48.122;11.538;2022-09-14T00:08:38;18.70;99.90
47520;DHT22;33252;48.122;11.538;2022-09-14T00:11:06;18.80;99.90
47520;DHT22;33252;48.122;11.538;2022-09-14T00:13:32;18.80;99.90
47520;DHT22;33252;48.122;11.538;2022-09-14T00:16:03;18.80;99.90
47520;DHT22;33252;48.122;11.538;2022-09-14T00:18:29;18.80;99.90
47520;DHT22;33252;48.122;11.538;2022-09-14T00:21:03;18.80;99.90
47520;DHT22;33252;48.122;11.538;2022-09-14T00:23:29;18.80;99.90
47520;DHT22;33252;48.122;11.538;2022-09-14T00:26:00;18.80;99.90
47520;DHT22;33252;48.122;11.538;2022-09-14T00:28:26;18.80;99.90
47520;DHT22;33252;48.122;11.538;2022-09-14T00:30:52;18.70;99.90
47520;DHT22;33252;48.122;11.538;2022-09-14T00:33:17;18.60;99.90
47520;DHT22;33252;48.122;11.538;2022-09-14T00:35:43;18.40;99.90
47520;DHT22;33252;48.122;11.538;2022-09-14T00:38:09;18.30;99.90
47520;DHT22;33252;48.122;11.538;2022-09-14T00:40:35;18.30;99.90
47520;DHT22;33252;48.122;11.538;2022-09-14T00:43:02;18.40;99.90
47520;DHT22;33252;48.122;11.538;2022-09-14T00:45:28;18.40;99.90
47520;DHT22;33252;48.122;11.538;2022-09-14T00:47:54;18.40;99.90
47520;DHT22;33252;48.122;11.538;2022-09-14T00:50:21;18.40;99.90
47520;DHT22;33252;48.122;11.538;2022-09-14T00:52:48;18.30;99.90
47520;DHT22;33252;48.122;11.538;2022-09-14T00:55:17;18.20;99.90
47520;DHT22;33252;48.122;11.538;2022-09-14T00:57:47;18.40;99.90
47520;DHT22;33252;48.122;11.538;2022-09-14T01:00:18;18.40;99.90
47520;DHT22;33252;48.122;11.538;2022-09-14T01:02:45;18.40;99.90
47520;DHT22;33252;48.122;11.538;2022-09-14T01:05:11;18.40;99.90
47520;DHT22;33252;48.122;11.538;2022-09-14T01:19:15;18.10;99.90
47520;DHT22;33252;48.122;11.538;2022-09-14T01:21:47;18.10;99.90
47520;DHT22;33252;48.122;11.538;2022-09-14T01:30:04;18.30;99.90
47520;DHT22;33252;48.122;11.538;2022-09-14T01:32:42;18.20;99.90
47520;DHT22;33252;48.122;11.538;2022-09-14T01:35:18;18.10;99.90
47520;DHT22;33252;48.122;11.538;2022-09-14T01:37:53;18.20;99.90
47520;DHT22;33252;48.122;11.538;2022-09-14T01:40:43;18.20;99.90
47520;DHT22;33252;48.122;11.538;2022-09-14T01:43:17;18.30;99.90
47520;DHT22;33252;48.122;11.538;2022-09-14T01:45:55;18.30;99.90
47520;DHT22;33252;48.122;11.538;2022-09-14T01:48:33;18.40;99.90
47520;DHT22;33252;48.122;11.538;2022-09-14T01:51:03;18.40;99.90
47520;DHT22;33252;48.122;11.538;2022-09-14T01:53:36;18.40;99.90
47520;DHT22;33252;48.122;11.538;2022-09-14T01:56:09;18.30;99.90
47520;DHT22;33252;48.122;11.538;2022-09-14T02:01:16;18.30;99.90
47520;DHT22;33252;48.122;11.538;2022-09-14T02:03:54;18.30;99.90
47520;DHT22;33252;48.122;11.538;2022-09-14T02:06:32;18.20;99.90
47520;DHT22;33252;48.122;11.538;2022-09-14T02:08:59;18.20;99.90
47520;DHT22;33252;48.122;11.538;2022-09-14T02:11:25;18.30;99.90
47520;DHT22;33252;48.122;11.538;2022-09-14T02:13:50;18.30;99.90
47520;DHT22;33252;48.122;11.538;2022-09-14T02:16:17;18.30;99.90
47520;DHT22;33252;48.122;11.538;2022-09-14T02:18:42;18.30;99.90
47520;DHT22;33252;48.122;11.538;2022-09-14T02:21:16;18.20;99.90
47520;DHT22;33252;48.122;11.538;2022-09-14T02:23:43;18.20;99.90
47520;DHT22;33252;48.122;11.538;2022-09-14T02:26:10;18.30;99.90
47520;DHT22;33252;48.122;11.538;2022-09-14T02:28:36;18.20;99.90
47520;DHT22;33252;48.122;11.538;2022-09-14T02:36:53;18.30;99.90
47520;DHT22;33252;48.122;11.538;2022-09-14T02:41:58;18.20;99.90
47520;DHT22;33252;48.122;11.538;2022-09-14T02:50:14;18.10;99.90
47520;DHT22;33252;48.122;11.538;2022-09-14T02:52:46;18.10;99.90
47520;DHT22;33252;48.122;11.538;2022-09-14T02:55:18;18.20;99.90
47520;DHT22;33252;48.122;11.538;2022-09-14T03:00:31;18.10;99.90
47520;DHT22;33252;48.122;11.538;2022-09-14T03:02:57;18.10;99.90
47520;DHT22;33252;48.122;11.538;2022-09-14T03:05:23;18.00;99.90
47520;DHT22;33252;48.122;11.538;2022-09-14T03:07:49;18.00;99.90
47520;DHT22;33252;48.122;11.538;2022-09-14T03:10:14;18.00;99.90
47520;DHT22;33252;48.122;11.538;2022-09-14T03:12:40;18.00;99.90
47520;DHT22;33252;48.122;11.538;2022-09-14T03:15:06;18.00;99.90
47520;DHT22;33252;48.122;11.538;2022-09-14T03:17:32;18.10;99.90
47520;DHT22;33252;48.122;11.538;2022-09-14T03:19:58;18.20;99.90
47520;DHT22;33252;48.122;11.538;2022-09-14T03:22:24;18.10;99.90
47520;DHT22;33252;48.122;11.538;2022-09-14T03:24:49;18.10;99.90
47520;DHT22;33252;48.122;11.538;2022-09-14T03:27:15;18.00;99.90
47520;DHT22;33252;48.122;11.538;2022-09-14T03:29:40;18.00;99.90
47520;DHT22;33252;48.122;11.538;2022-09-14T03:32:06;18.10;99.90
47520;DHT22;33252;48.122;11.538;2022-09-14T03:34:32;18.00;99.90
47520;DHT22;33252;48.122;11.538;2022-09-14T03:36:57;17.90;99.90
47520;DHT22;33252;48.122;11.538;2022-09-14T03:39:23;17.90;99.90
47520;DHT22;33252;48.122;11.538;2022-09-14T03:41:48;17.90;99.90
47520;DHT22;33252;48.122;11.538;2022-09-14T03:44:14;18.00;99.90
47520;DHT22;33252;48.122;11.538;2022-09-14T03:46:40;18.00;99.90
47520;DHT22;33252;48.122;11.538;2022-09-14T03:49:05;18.10;99.90
47520;DHT22;33252;48.122;11.538;2022-09-14T03:51:32;18.20;99.90
47520;DHT22;33252;48.122;11.538;2022-09-14T03:53:58;18.20;99.90
47520;DHT22;33252;48.122;11.538;2022-09-14T03:56:24;18.20;99.90
47520;DHT22;33252;48.122;11.538;2022-09-14T03:58:50;18.20;99.90
47520;DHT22;33252;48.122;11.538;2022-09-14T04:01:18;18.30;99.90
47520;DHT22;33252;48.122;11.538;2022-09-14T04:03:44;18.30;99.90
47520;DHT22;33252;48.122;11.538;2022-09-14T04:06:10;18.40;99.90
47520;DHT22;33252;48.122;11.538;2022-09-14T04:08:38;18.40;99.90
47520;DHT22;33252;48.122;11.538;2022-09-14T04:11:16;18.40;99.90
47520;DHT22;33252;48.122;11.538;2022-09-14T04:13:42;18.50;99.90
47520;DHT22;33252;48.122;11.538;2022-09-14T04:16:09;18.50;99.90
47520;DHT22;33252;48.122;11.538;2022-09-14T04:18:35;18.50;99.90
47520;DHT22;33252;48.122;11.538;2022-09-14T04:21:03;18.60;99.90
47520;DHT22;33252;48.122;11.538;2022-09-14T04:23:28;18.60;99.90
47520;DHT22;33252;48.122;11.538;2022-09-14T04:25:54;18.60;99.90
47520;DHT22;33252;48.122;11.538;2022-09-14T04:28:21;18.60;99.90
47520;DHT22;33252;48.122;11.538;2022-09-14T04:30:58;18.60;99.90
47520;DHT22;33252;48.122;11.538;2022-09-14T04:33:24;18.60;99.90
47520;DHT22;33252;48.122;11.538;2022-09-14T04:36:01;18.60;99.90
47520;DHT22;33252;48.122;11.538;2022-09-14T04:38:30;18.60;99.90
47520;DHT22;33252;48.122;11.538;2022-09-14T04:40:57;18.60;99.90
47520;DHT22;33252;48.122;11.538;2022-09-14T04:43:24;18.60;99.90
47520;DHT22;33252;48.122;11.538;2022-09-14T04:45:50;18.60;99.90
47520;DHT22;33252;48.122;11.538;2022-09-14T04:48:17;18.60;99.90
47520;DHT22;33252;48.122;11.538;2022-09-14T04:50:43;18.60;99.90
47520;DHT22;33252;48.122;11.538;2022-09-14T04:53:09;18.60;99.90
47520;DHT22;33252;48.122;11.538;2022-09-14T04:55:35;18.70;99.90
47520;DHT22;33252;48.122;11.538;2022-09-14T04:58:01;18.70;99.90
47520;DHT22;33252;48.122;11.538;2022-09-14T05:00:27;18.70;99.90
47520;DHT22;33252;48.122;11.538;2022-09-14T05:02:52;18.70;99.90
47520;DHT22;33252;48.122;11.538;2022-09-14T05:05:18;18.70;99.90
47520;DHT22;33252;48.122;11.538;2022-09-14T05:07:44;18.70;99.90
47520;DHT22;33252;48.122;11.538;2022-09-14T05:10:09;18.70;99.90
47520;DHT22;33252;48.122;11.538;2022-09-14T05:12:35;18.70;99.90
47520;DHT22;33252;48.122;11.538;2022-09-14T05:15:01;18.70;99.90
47520;DHT22;33252;48.122;11.538;2022-09-14T05:17:27;18.70;99.90
47520;DHT22;33252;48.122;11.538;2022-09-14T05:19:52;18.70;99.90
47520;DHT22;33252;48.122;11.538;2022-09-14T05:22:18;18.70;99.90
47520;DHT22;33252;48.122;11.538;2022-09-14T05:24:45;18.70;99.90
47520;DHT22;33252;48.122;11.538;2022-09-14T05:27:11;18.70;99.90
47520;DHT22;33252;48.122;11.538;2022-09-14T05:29:37;18.70;99.90
47520;DHT22;33252;48.122;11.538;2022-09-14T05:32:05;18.80;99.90
47520;DHT22;33252;48.122;11.538;2022-09-14T05:34:30;18.90;99.90
47520;DHT22;33252;48.122;11.538;2022-09-14T05:36:56;19.00;99.90
47520;DHT22;33252;48.122;11.538;2022-09-14T05:39:23;19.10;99.90
47520;DHT22;33252;48.122;11.538;2022-09-14T05:41:50;19.20;99.90
47520;DHT22;33252;48.122;11.538;2022-09-14T05:44:16;19.10;99.90
47520;DHT22;33252;48.122;11.538;2022-09-14T05:46:42;19.20;99.90
47520;DHT22;33252;48.122;11.538;2022-09-14T05:49:07;19.20;99.90
47520;DHT22;33252;48.122;11.538;2022-09-14T05:51:33;19.20;99.90
47520;DHT22;33252;48.122;11.538;2022-09-14T05:53:59;19.30;99.90
47520;DHT22;33252;48.122;11.538;2022-09-14T05:56:27;19.40;99.90
47520;DHT22;33252;48.122;11.538;2022-09-14T05:58:53;19.40;99.90
47520;DHT22;33252;48.122;11.538;2022-09-14T06:01:24;19.40;99.90
47520;DHT22;33252;48.122;11.538;2022-09-14T06:03:55;19.40;99.90
47520;DHT22;33252;48.122;11.538;2022-09-14T06:06:22;19.40;99.90
47520;DHT22;33252;48.122;11.538;2022-09-14T06:08:49;19.50;99.90
47520;DHT22;33252;48.122;11.538;2022-09-14T06:11:28;19.50;99.90
47520;DHT22;33252;48.122;11.538;2022-09-14T06:13:54;19.50;99.90
47520;DHT22;33252;48.122;11.538;2022-09-14T06:16:21;19.70;99.90
47520;DHT22;33252;48.122;11.538;2022-09-14T06:18:48;19.70;99.90
47520;DHT22;33252;48.122;11.538;2022-09-14T06:21:17;19.60;99.90
47520;DHT22;33252;48.122;11.538;2022-09-14T06:23:44;19.60;99.90
47520;DHT22;33252;48.122;11.538;2022-09-14T06:26:09;19.60;99.90
47520;DHT22;33252;48.122;11.538;2022-09-14T06:28:35;19.60;99.90
47520;DHT22;33252;48.122;11.538;2022-09-14T06:31:02;19.60;99.90
47520;DHT22;33252;48.122;11.538;2022-09-14T06:33:32;19.70;99.90
47520;DHT22;33252;48.122;11.538;2022-09-14T06:36:01;19.60;99.90
47520;DHT22;33252;48.122;11.538;2022-09-14T06:38:28;19.80;99.90
47520;DHT22;33252;48.122;11.538;2022-09-14T06:40:55;19.80;99.90
47520;DHT22;33252;48.122;11.538;2022-09-14T06:43:22;19.80;99.90
47520;DHT22;33252;48.122;11.538;2022-09-14T06:45:59;19.90;99.90
47520;DHT22;33252;48.122;11.538;2022-09-14T06:48:30;19.90;99.90
47520;DHT22;33252;48.122;11.538;2022-09-14T06:50:56;19.90;99.90
47520;DHT22;33252;48.122;11.538;2022-09-14T06:53:22;19.90;99.90
47520;DHT22;33252;48.122;11.538;2022-09-14T06:55:48;19.70;99.90
47520;DHT22;33252;48.122;11.538;2022-09-14T06:58:14;19.60;99.90
47520;DHT22;33252;48.122;11.538;2022-09-14T07:00:40;19.60;99.90
47520;DHT22;33252;48.122;11.538;2022-09-14T07:03:05;19.50;99.90
47520;DHT22;33252;48.122;11.538;2022-09-14T07:05:31;19.50;99.90
47520;DHT22;33252;48.122;11.538;2022-09-14T07:07:57;19.60;99.90
47520;DHT22;33252;48.122;11.538;2022-09-14T07:10:23;19.60;99.90
47520;DHT22;33252;48.122;11.538;2022-09-14T07:12:53;19.60;99.90
47520;DHT22;33252;48.122;11.538;2022-09-14T07:15:19;19.50;99.90
47520;DHT22;33252;48.122;11.538;2022-09-14T07:17:45;19.50;99.90
47520;DHT22;33252;48.122;11.538;2022-09-14T07:20:11;19.50;99.90
47520;DHT22;33252;48.122;11.538;2022-09-14T07:22:37;19.60;99.90
47520;DHT22;33252;48.122;11.538;2022-09-14T07:25:03;19.60;99.90
47520;DHT22;33252;48.122;11.538;2022-09-14T07:27:28;19.60;99.90
47520;DHT22;33252;48.122;11.538;2022-09-14T07:29:54;19.60;99.90
47520;DHT22;33252;48.122;11.538;2022-09-14T07:32:20;19.70;99.90
47520;DHT22;33252;48.122;11.538;2022-09-14T07:34:45;19.70;99.90
47520;DHT22;33252;48.122;11.538;2022-09-14T07:37:11;19.70;99.90
47520;DHT22;33252;48.122;11.538;2022-09-14T07:39:37;19.80;99.90
47520;DHT22;33252;48.122;11.538;2022-09-14T07:42:02;19.80;99.90
47520;DHT22;33252;48.122;11.538;2022-09-14T07:44:28;19.90;99.90
47520;DHT22;33252;48.122;11.538;2022-09-14T07:46:54;20.00;99.90
47520;DHT22;33252;48.122;11.538;2022-09-14T07:49:19;20.00;99.90
47520;DHT22;33252;48.122;11.538;2022-09-14T07:51:46;20.10;99.90
47520;DHT22;33252;48.122;11.538;2022-09-14T07:54:16;20.20;99.90
47520;DHT22;33252;48.122;11.538;2022-09-14T07:56:41;20.40;99.90
47520;DHT22;33252;48.122;11.538;2022-09-14T07:59:12;20.50;99.90
47520;DHT22;33252;48.122;11.538;2022-09-14T08:01:38;20.60;99.90
47520;DHT22;33252;48.122;11.538;2022-09-14T08:04:05;20.80;99.90
47520;DHT22;33252;48.122;11.538;2022-09-14T08:06:30;20.90;99.90
47520;DHT22;33252;48.122;11.538;2022-09-14T08:08:57;21.10;99.90
47520;DHT22;33252;48.122;11.538;2022-09-14T08:11:24;21.20;99.90
47520;DHT22;33252;48.122;11.538;2022-09-14T08:14:01;21.30;99.90
47520;DHT22;33252;48.122;11.538;2022-09-14T08:16:30;21.40;99.90
47520;DHT22;33252;48.122;11.538;2022-09-14T08:19:04;21.60;99.90
47520;DHT22;33252;48.122;11.538;2022-09-14T08:21:32;21.80;99.90
47520;DHT22;33252;48.122;11.538;2022-09-14T08:23:58;21.80;99.90
47520;DHT22;33252;48.122;11.538;2022-09-14T08:26:27;21.80;99.90
47520;DHT22;33252;48.122;11.538;2022-09-14T08:28:54;22.00;99.90
47520;DHT22;33252;48.122;11.538;2022-09-14T08:31:24;21.90;99.90
47520;DHT22;33252;48.122;11.538;2022-09-14T08:33:56;22.00;99.90
47520;DHT22;33252;48.122;11.538;2022-09-14T08:36:24;22.10;99.30
47520;DHT22;33252;48.122;11.538;2022-09-14T08:38:50;22.00;99.70
47520;DHT22;33252;48.122;11.538;2022-09-14T08:41:32;22.10;98.80
47520;DHT22;33252;48.122;11.538;2022-09-14T08:46:44;22.40;98.00
47520;DHT22;33252;48.122;11.538;2022-09-14T08:52:00;22.50;97.50
47520;DHT22;33252;48.122;11.538;2022-09-14T08:54:26;22.60;97.40
47520;DHT22;33252;48.122;11.538;2022-09-14T09:10:45;23.00;96.60
47520;DHT22;33252;48.122;11.538;2022-09-14T09:13:15;23.10;96.20
47520;DHT22;33252;48.122;11.538;2022-09-14T09:15:49;23.20;96.00
47520;DHT22;33252;48.122;11.538;2022-09-14T09:18:45;23.30;95.60
47520;DHT22;33252;48.122;11.538;2022-09-14T09:21:16;23.30;95.50
47520;DHT22;33252;48.122;11.538;2022-09-14T09:23:42;23.30;95.60
47520;DHT22;33252;48.122;11.538;2022-09-14T09:28:52;23.40;95.60
47520;DHT22;33252;48.122;11.538;2022-09-14T09:31:21;23.40;96.20
47520;DHT22;33252;48.122;11.538;2022-09-14T09:33:49;23.50;95.70
47520;DHT22;33252;48.122;11.538;2022-09-14T09:36:16;23.50;95.70
47520;DHT22;33252;48.122;11.538;2022-09-14T09:38:42;23.50;95.70
47520;DHT22;33252;48.122;11.538;2022-09-14T09:41:23;23.60;94.60
47520;DHT22;33252;48.122;11.538;2022-09-14T09:46:30;23.70;95.00
47520;DHT22;33252;48.122;11.538;2022-09-14T09:48:58;23.70;95.10
47520;DHT22;33252;48.122;11.538;2022-09-14T09:51:29;23.60;95.70
47520;DHT22;33252;48.122;11.538;2022-09-14T09:56:55;23.50;95.50
47520;DHT22;33252;48.122;11.538;2022-09-14T09:59:37;23.80;94.70
47520;DHT22;33252;48.122;11.538;2022-09-14T10:05:26;23.70;94.50
47520;DHT22;33252;48.122;11.538;2022-09-14T10:08:04;23.60;94.50
47520;DHT22;33252;48.122;11.538;2022-09-14T10:13:00;23.60;94.40
47520;DHT22;33252;48.122;11.538;2022-09-14T10:15:33;23.70;94.60
47520;DHT22;33252;48.122;11.538;2022-09-14T10:20:28;23.80;93.80
47520;DHT22;33252;48.122;11.538;2022-09-14T10:22:53;23.80;94.30
47520;DHT22;33252;48.122;11.538;2022-09-14T10:25:24;23.80;94.40
47520;DHT22;33252;48.122;11.538;2022-09-14T10:27:58;23.90;94.70
47520;DHT22;33252;48.122;11.538;2022-09-14T10:30:27;24.10;94.20
47520;DHT22;33252;48.122;11.538;2022-09-14T10:32:59;24.10;94.20
47520;DHT22;33252;48.122;11.538;2022-09-14T10:38:24;24.10;94.60
47520;DHT22;33252;48.122;11.538;2022-09-14T10:41:12;24.10;94.20
47520;DHT22;33252;48.122;11.538;2022-09-14T10:46:47;23.90;94.30
47520;DHT22;33252;48.122;11.538;2022-09-14T10:52:00;23.90;94.30
47520;DHT22;33252;48.122;11.538;2022-09-14T10:59:50;23.80;94.60
47520;DHT22;33252;48.122;11.538;2022-09-14T11:07:20;23.80;94.50
47520;DHT22;33252;48.122;11.538;2022-09-14T11:15:30;24.10;94.10
47520;DHT22;33252;48.122;11.538;2022-09-14T11:18:14;24.10;93.70
47520;DHT22;33252;48.122;11.538;2022-09-14T11:21:51;24.10;93.80
47520;DHT22;33252;48.122;11.538;2022-09-14T11:26:23;24.40;93.60
47520;DHT22;33252;48.122;11.538;2022-09-14T11:29:34;24.40;92.80
47520;DHT22;33252;48.122;11.538;2022-09-14T11:32:06;24.30;92.80
47520;DHT22;33252;48.122;11.538;2022-09-14T11:35:00;24.20;92.70
47520;DHT22;33252;48.122;11.538;2022-09-14T11:37:40;24.20;92.80
47520;DHT22;33252;48.122;11.538;2022-09-14T11:40:25;24.10;93.30
47520;DHT22;33252;48.122;11.538;2022-09-14T11:43:04;24.10;93.10
47520;DHT22;33252;48.122;11.538;2022-09-14T11:48:40;24.50;92.60
47520;DHT22;33252;48.122;11.538;2022-09-14T11:51:12;24.50;93.00
47520;DHT22;33252;48.122;11.538;2022-09-14T11:53:43;24.60;92.90
47520;DHT22;33252;48.122;11.538;2022-09-14T11:56:30;24.70;93.20
47520;DHT22;33252;48.122;11.538;2022-09-14T11:58:59;24.80;92.50
47520;DHT22;33252;48.122;11.538;2022-09-14T12:01:31;25.00;92.30
47520;DHT22;33252;48.122;11.538;2022-09-14T12:11:56;24.60;93.10
47520;DHT22;33252;48.122;11.538;2022-09-14T12:14:36;24.70;92.60
47520;DHT22;33252;48.122;11.538;2022-09-14T12:17:20;24.70;92.50
47520;DHT22;33252;48.122;11.538;2022-09-14T12:19:49;24.80;92.60
47520;DHT22;33252;48.122;11.538;2022-09-14T12:22:35;24.80;92.40
47520;DHT22;33252;48.122;11.538;2022-09-14T12:27:35;24.90;91.80
47520;DHT22;33252;48.122;11.538;2022-09-14T12:35:59;25.10;91.40
47520;DHT22;33252;48.122;11.538;2022-09-14T12:54:01;25.40;91.40
47520;DHT22;33252;48.122;11.538;2022-09-14T12:56:52;25.20;91.50
47520;DHT22;33252;48.122;11.538;2022-09-14T13:05:22;24.80;92.70
47520;DHT22;33252;48.122;11.538;2022-09-14T13:07:49;24.70;92.50
47520;DHT22;33252;48.122;11.538;2022-09-14T13:12:44;24.60;92.90
47520;DHT22;33252;48.122;11.538;2022-09-14T13:15:32;24.50;93.70
47520;DHT22;33252;48.122;11.538;2022-09-14T13:18:05;24.50;92.90
47520;DHT22;33252;48.122;11.538;2022-09-14T13:20:50;24.50;93.10
47520;DHT22;33252;48.122;11.538;2022-09-14T13:23:30;24.50;93.00
47520;DHT22;33252;48.122;11.538;2022-09-14T13:25:58;24.50;93.40
47520;DHT22;33252;48.122;11.538;2022-09-14T13:28:27;24.50;93.30
47520;DHT22;33252;48.122;11.538;2022-09-14T13:31:01;24.50;93.00
47520;DHT22;33252;48.122;11.538;2022-09-14T13:33:29;24.50;93.10
47520;DHT22;33252;48.122;11.538;2022-09-14T13:36:00;24.40;93.30
47520;DHT22;33252;48.122;11.538;2022-09-14T13:38:35;24.40;93.30
47520;DHT22;33252;48.122;11.538;2022-09-14T13:41:11;24.30;93.20
47520;DHT22;33252;48.122;11.538;2022-09-14T13:43:40;24.30;92.90
47520;DHT22;33252;48.122;11.538;2022-09-14T13:46:06;24.40;92.80
47520;DHT22;33252;48.122;11.538;2022-09-14T13:48:33;24.60;92.20
47520;DHT22;33252;48.122;11.538;2022-09-14T13:51:03;24.60;92.10
47520;DHT22;33252;48.122;11.538;2022-09-14T13:56:30;24.50;92.40
47520;DHT22;33252;48.122;11.538;2022-09-14T14:01:49;24.60;92.10
47520;DHT22;33252;48.122;11.538;2022-09-14T14:04:35;24.60;92.10
47520;DHT22;33252;48.122;11.538;2022-09-14T14:07:20;24.50;92.60
47520;DHT22;33252;48.122;11.538;2022-09-14T14:09:52;24.50;92.50
47520;DHT22;33252;48.122;11.538;2022-09-14T14:14:59;24.30;91.40
47520;DHT22;33252;48.122;11.538;2022-09-14T14:17:31;24.20;91.80
47520;DHT22;33252;48.122;11.538;2022-09-14T14:19:58;24.20;92.20
47520;DHT22;33252;48.122;11.538;2022-09-14T14:22:30;24.10;92.40
47520;DHT22;33252;48.122;11.538;2022-09-14T14:24:57;24.00;92.70
47520;DHT22;33252;48.122;11.538;2022-09-14T14:32:58;23.80;93.20
47520;DHT22;33252;48.122;11.538;2022-09-14T14:35:28;23.80;92.90
47520;DHT22;33252;48.122;11.538;2022-09-14T14:37:55;23.70;93.20
47520;DHT22;33252;48.122;11.538;2022-09-14T14:40:21;23.70;93.00
47520;DHT22;33252;48.122;11.538;2022-09-14T14:42:47;23.70;93.20
47520;DHT22;33252;48.122;11.538;2022-09-14T14:45:19;23.60;93.20
47520;DHT22;33252;48.122;11.538;2022-09-14T14:47:47;23.60;93.20
47520;DHT22;33252;48.122;11.538;2022-09-14T14:50:18;23.50;93.40
47520;DHT22;33252;48.122;11.538;2022-09-14T14:52:44;23.50;93.30
47520;DHT22;33252;48.122;11.538;2022-09-14T14:55:11;23.50;93.20
47520;DHT22;33252;48.122;11.538;2022-09-14T14:57:36;23.50;93.40
47520;DHT22;33252;48.122;11.538;2022-09-14T15:00:20;23.40;93.30
47520;DHT22;33252;48.122;11.538;2022-09-14T15:02:45;23.40;93.00
47520;DHT22;33252;48.122;11.538;2022-09-14T15:05:12;23.40;92.90
47520;DHT22;33252;48.122;11.538;2022-09-14T15:07:38;23.30;92.80
47520;DHT22;33252;48.122;11.538;2022-09-14T15:10:04;23.40;92.80
47520;DHT22;33252;48.122;11.538;2022-09-14T15:12:31;23.30;92.60
47520;DHT22;33252;48.122;11.538;2022-09-14T15:14:57;23.40;92.50
47520;DHT22;33252;48.122;11.538;2022-09-14T15:17:24;23.40;92.50
47520;DHT22;33252;48.122;11.538;2022-09-14T15:19:49;23.30;92.30
47520;DHT22;33252;48.122;11.538;2022-09-14T15:22:17;23.30;92.40
47520;DHT22;33252;48.122;11.538;2022-09-14T15:24:42;23.30;92.50
47520;DHT22;33252;48.122;11.538;2022-09-14T15:27:08;23.30;92.60
47520;DHT22;33252;48.122;11.538;2022-09-14T15:29:34;23.10;93.60
47520;DHT22;33252;48.122;11.538;2022-09-14T15:32:00;22.80;94.50
47520;DHT22;33252;48.122;11.538;2022-09-14T15:34:25;22.50;95.40
47520;DHT22;33252;48.122;11.538;2022-09-14T15:36:52;22.40;95.90
47520;DHT22;33252;48.122;11.538;2022-09-14T15:39:25;22.10;96.10
47520;DHT22;33252;48.122;11.538;2022-09-14T15:41:53;22.00;96.40
47520;DHT22;33252;48.122;11.538;2022-09-14T15:44:19;21.90;96.70
47520;DHT22;33252;48.122;11.538;2022-09-14T15:46:45;21.90;97.30
47520;DHT22;33252;48.122;11.538;2022-09-14T15:49:16;21.70;98.00
47520;DHT22;33252;48.122;11.538;2022-09-14T15:51:44;21.30;99.90
47520;DHT22;33252;48.122;11.538;2022-09-14T15:54:11;20.70;99.90
47520;DHT22;33252;48.122;11.538;2022-09-14T15:56:37;20.30;99.90
47520;DHT22;33252;48.122;11.538;2022-09-14T15:59:03;20.10;99.90
47520;DHT22;33252;48.122;11.538;2022-09-14T16:01:30;20.20;99.90
47520;DHT22;33252;48.122;11.538;2022-09-14T16:04:06;20.00;99.90
47520;DHT22;33252;48.122;11.538;2022-09-14T16:06:32;20.00;99.90
47520;DHT22;33252;48.122;11.538;2022-09-14T16:09:02;19.90;99.90
47520;DHT22;33252;48.122;11.538;2022-09-14T16:11:28;20.00;99.90
47520;DHT22;33252;48.122;11.538;2022-09-14T16:13:57;19.80;99.90
47520;DHT22;33252;48.122;11.538;2022-09-14T16:16:23;19.60;99.90
47520;DHT22;33252;48.122;11.538;2022-09-14T16:18:48;19.60;99.90
47520;DHT22;33252;48.122;11.538;2022-09-14T16:21:18;19.50;99.90
47520;DHT22;33252;48.122;11.538;2022-09-14T16:23:48;19.60;99.90
47520;DHT22;33252;48.122;11.538;2022-09-14T16:26:20;19.50;99.90
47520;DHT22;33252;48.122;11.538;2022-09-14T16:28:47;19.50;99.90
47520;DHT22;33252;48.122;11.538;2022-09-14T16:31:19;19.50;99.90
47520;DHT22;33252;48.122;11.538;2022-09-14T16:33:47;19.60;99.90
47520;DHT22;33252;48.122;11.538;2022-09-14T16:36:22;19.80;99.90
47520;DHT22;33252;48.122;11.538;2022-09-14T16:38:50;19.70;99.90
47520;DHT22;33252;48.122;11.538;2022-09-14T16:41:16;19.70;99.90
47520;DHT22;33252;48.122;11.538;2022-09-14T16:43:43;19.70;99.90
47520;DHT22;33252;48.122;11.538;2022-09-14T16:46:16;19.70;99.90
47520;DHT22;33252;48.122;11.538;2022-09-14T16:48:46;19.80;99.90
47520;DHT22;33252;48.122;11.538;2022-09-14T16:51:15;19.90;99.90
47520;DHT22;33252;48.122;11.538;2022-09-14T16:53:43;19.80;99.90
47520;DHT22;33252;48.122;11.538;2022-09-14T16:56:21;19.90;99.90
47520;DHT22;33252;48.122;11.538;2022-09-14T16:58:49;19.80;99.90
47520;DHT22;33252;48.122;11.538;2022-09-14T17:01:16;19.80;99.90
47520;DHT22;33252;48.122;11.538;2022-09-14T17:03:43;19.80;99.90
47520;DHT22;33252;48.122;11.538;2022-09-14T17:06:11;19.80;99.90
47520;DHT22;33252;48.122;11.538;2022-09-14T17:08:38;19.80;99.90
47520;DHT22;33252;48.122;11.538;2022-09-14T17:11:04;19.80;99.90
47520;DHT22;33252;48.122;11.538;2022-09-14T17:13:31;19.70;99.90
47520;DHT22;33252;48.122;11.538;2022-09-14T17:16:07;19.70;99.90
47520;DHT22;33252;48.122;11.538;2022-09-14T17:18:36;19.70;99.90
47520;DHT22;33252;48.122;11.538;2022-09-14T17:21:05;19.70;99.90
47520;DHT22;33252;48.122;11.538;2022-09-14T17:23:31;19.60;99.90
47520;DHT22;33252;48.122;11.538;2022-09-14T17:25:57;19.50;99.90
47520;DHT22;33252;48.122;11.538;2022-09-14T17:28:26;19.60;99.90
47520;DHT22;33252;48.122;11.538;2022-09-14T17:30:54;19.60;99.90
47520;DHT22;33252;48.122;11.538;2022-09-14T17:33:20;19.60;99.90
47520;DHT22;33252;48.122;11.538;2022-09-14T17:35:47;19.50;99.90
47520;DHT22;33252;48.122;11.538;2022-09-14T17:38:13;19.50;99.90
47520;DHT22;33252;48.122;11.538;2022-09-14T17:40:38;19.50;99.90
47520;DHT22;33252;48.122;11.538;2022-09-14T17:43:04;19.40;99.90
47520;DHT22;33252;48.122;11.538;2022-09-14T17:45:30;19.40;99.90
47520;DHT22;33252;48.122;11.538;2022-09-14T17:47:55;19.30;99.90
47520;DHT22;33252;48.122;11.538;2022-09-14T17:50:21;19.30;99.90
47520;DHT22;33252;48.122;11.538;2022-09-14T17:52:48;19.40;99.90
47520;DHT22;33252;48.122;11.538;2022-09-14T17:55:15;19.40;99.90
47520;DHT22;33252;48.122;11.538;2022-09-14T17:57:40;19.30;99.90
47520;DHT22;33252;48.122;11.538;2022-09-14T18:00:07;19.30;99.90
47520;DHT22;33252;48.122;11.538;2022-09-14T18:02:33;19.30;99.90
47520;DHT22;33252;48.122;11.538;2022-09-14T18:04:58;19.20;99.90